sensor_id;sensor_type;location;lat;lon;timestamp;P1;durP1;ratioP1;P2;durP2;ratioP2
17983;SDS011;9117;52.420;20.728;2023-04-25T00:00:24;28.60;;;18.77;;
17983;SDS011;9117;52.420;20.728;2023-04-25T00:02:54;30.63;;;19.38;;
17983;SDS011;9117;52.420;20.728;2023-04-25T00:05:23;29.88;;;18.75;;
17983;SDS011;9117;52.420;20.728;2023-04-25T00:07:52;29.88;;;18.58;;
17983;SDS011;9117;52.420;20.728;2023-04-25T00:10:21;32.95;;;19.83;;
17983;SDS011;9117;52.420;20.728;2023-04-25T00:12:49;27.73;;;18.17;;
17983;SDS011;9117;52.420;20.728;2023-04-25T00:15:17;29.98;;;18.67;;
17983;SDS011;9117;52.420;20.728;2023-04-25T00:17:46;32.88;;;19.45;;
17983;SDS011;9117;52.420;20.728;2023-04-25T00:20:16;30.08;;;20.02;;
17983;SDS011;9117;52.420;20.728;2023-04-25T00:22:45;35.42;;;20.05;;
17983;SDS011;9117;52.420;20.728;2023-04-25T00:25:14;32.92;;;21.33;;
17983;SDS011;9117;52.420;20.728;2023-04-25T00:27:42;34.30;;;20.73;;
17983;SDS011;9117;52.420;20.728;2023-04-25T00:30:11;31.77;;;20.27;;
17983;SDS011;9117;52.420;20.728;2023-04-25T00:32:40;32.35;;;20.17;;
17983;SDS011;9117;52.420;20.728;2023-04-25T00:35:08;30.70;;;19.55;;
17983;SDS011;9117;52.420;20.728;2023-04-25T00:37:38;36.25;;;21.60;;
17983;SDS011;9117;52.420;20.728;2023-04-25T00:40:07;32.65;;;20.58;;
17983;SDS011;9117;52.420;20.728;2023-04-25T00:42:36;30.80;;;19.83;;
17983;SDS011;9117;52.420;20.728;2023-04-25T00:45:05;36.33;;;21.63;;
17983;SDS011;9117;52.420;20.728;2023-04-25T00:47:36;35.60;;;21.02;;
17983;SDS011;9117;52.420;20.728;2023-04-25T00:50:05;35.75;;;21.45;;
17983;SDS011;9117;52.420;20.728;2023-04-25T00:52:35;32.28;;;19.75;;
17983;SDS011;9117;52.420;20.728;2023-04-25T00:55:06;38.83;;;20.65;;
17983;SDS011;9117;52.420;20.728;2023-04-25T00:57:34;33.40;;;19.70;;
17983;SDS011;9117;52.420;20.728;2023-04-25T01:00:03;31.60;;;19.73;;
17983;SDS011;9117;52.420;20.728;2023-04-25T01:02:33;32.13;;;20.38;;
17983;SDS011;9117;52.420;20.728;2023-04-25T01:05:02;36.38;;;20.27;;
17983;SDS011;9117;52.420;20.728;2023-04-25T01:07:31;33.03;;;20.25;;
17983;SDS011;9117;52.420;20.728;2023-04-25T01:09:59;32.67;;;20.52;;
17983;SDS011;9117;52.420;20.728;2023-04-25T01:12:30;31.63;;;20.02;;
17983;SDS011;9117;52.420;20.728;2023-04-25T01:14:58;33.50;;;20.58;;
17983;SDS011;9117;52.420;20.728;2023-04-25T01:17:27;32.92;;;20.52;;
17983;SDS011;9117;52.420;20.728;2023-04-25T01:19:55;35.00;;;20.63;;
17983;SDS011;9117;52.420;20.728;2023-04-25T01:22:25;33.25;;;20.33;;
17983;SDS011;9117;52.420;20.728;2023-04-25T01:24:54;35.15;;;21.35;;
17983;SDS011;9117;52.420;20.728;2023-04-25T01:27:22;34.95;;;21.05;;
17983;SDS011;9117;52.420;20.728;2023-04-25T01:29:51;33.78;;;20.60;;
17983;SDS011;9117;52.420;20.728;2023-04-25T01:32:21;32.28;;;20.10;;
17983;SDS011;9117;52.420;20.728;2023-04-25T01:34:50;34.22;;;21.00;;
17983;SDS011;9117;52.420;20.728;2023-04-25T01:37:19;36.25;;;20.88;;
17983;SDS011;9117;52.420;20.728;2023-04-25T01:39:49;33.10;;;21.60;;
17983;SDS011;9117;52.420;20.728;2023-04-25T01:42:17;36.33;;;21.00;;
17983;SDS011;9117;52.420;20.728;2023-04-25T01:44:45;37.88;;;21.50;;
17983;SDS011;9117;52.420;20.728;2023-04-25T01:47:14;37.15;;;22.38;;
17983;SDS011;9117;52.420;20.728;2023-04-25T01:49:42;38.67;;;22.33;;
17983;SDS011;9117;52.420;20.728;2023-04-25T01:52:10;37.00;;;21.85;;
17983;SDS011;9117;52.420;20.728;2023-04-25T01:54:38;35.20;;;21.75;;
17983;SDS011;9117;52.420;20.728;2023-04-25T01:57:11;32.53;;;20.25;;
17983;SDS011;9117;52.420;20.728;2023-04-25T01:59:40;33.70;;;21.55;;
17983;SDS011;9117;52.420;20.728;2023-04-25T02:02:09;36.33;;;21.42;;
17983;SDS011;9117;52.420;20.728;2023-04-25T02:04:37;36.30;;;21.48;;
17983;SDS011;9117;52.420;20.728;2023-04-25T02:07:05;34.50;;;21.52;;
17983;SDS011;9117;52.420;20.728;2023-04-25T02:09:34;35.55;;;21.85;;
17983;SDS011;9117;52.420;20.728;2023-04-25T02:12:02;36.35;;;22.23;;
17983;SDS011;9117;52.420;20.728;2023-04-25T02:14:32;36.75;;;21.23;;
17983;SDS011;9117;52.420;20.728;2023-04-25T02:17:00;37.72;;;22.15;;
17983;SDS011;9117;52.420;20.728;2023-04-25T02:19:28;32.47;;;20.50;;
17983;SDS011;9117;52.420;20.728;2023-04-25T02:21:56;34.03;;;19.90;;
17983;SDS011;9117;52.420;20.728;2023-04-25T02:24:24;32.97;;;19.83;;
17983;SDS011;9117;52.420;20.728;2023-04-25T02:26:54;35.53;;;19.17;;
17983;SDS011;9117;52.420;20.728;2023-04-25T02:29:22;33.53;;;18.58;;
17983;SDS011;9117;52.420;20.728;2023-04-25T02:31:52;32.60;;;18.65;;
17983;SDS011;9117;52.420;20.728;2023-04-25T02:34:20;30.98;;;18.20;;
17983;SDS011;9117;52.420;20.728;2023-04-25T02:36:49;30.42;;;18.35;;
17983;SDS011;9117;52.420;20.728;2023-04-25T02:39:17;29.73;;;17.42;;
17983;SDS011;9117;52.420;20.728;2023-04-25T02:41:45;27.92;;;17.20;;
17983;SDS011;9117;52.420;20.728;2023-04-25T02:44:13;29.95;;;17.80;;
17983;SDS011;9117;52.420;20.728;2023-04-25T02:46:42;25.92;;;17.00;;
17983;SDS011;9117;52.420;20.728;2023-04-25T02:49:11;31.23;;;17.13;;
17983;SDS011;9117;52.420;20.728;2023-04-25T02:51:39;28.65;;;17.27;;
17983;SDS011;9117;52.420;20.728;2023-04-25T02:54:08;28.48;;;17.05;;
17983;SDS011;9117;52.420;20.728;2023-04-25T02:56:36;30.23;;;16.55;;
17983;SDS011;9117;52.420;20.728;2023-04-25T02:59:04;29.08;;;16.83;;
17983;SDS011;9117;52.420;20.728;2023-04-25T03:01:32;27.65;;;16.25;;
17983;SDS011;9117;52.420;20.728;2023-04-25T03:04:00;28.85;;;17.10;;
17983;SDS011;9117;52.420;20.728;2023-04-25T03:06:30;26.83;;;16.00;;
17983;SDS011;9117;52.420;20.728;2023-04-25T03:08:58;27.17;;;16.55;;
17983;SDS011;9117;52.420;20.728;2023-04-25T03:11:26;24.67;;;15.40;;
17983;SDS011;9117;52.420;20.728;2023-04-25T03:13:54;26.83;;;15.32;;
17983;SDS011;9117;52.420;20.728;2023-04-25T03:16:23;30.20;;;14.68;;
17983;SDS011;9117;52.420;20.728;2023-04-25T03:18:51;24.27;;;15.07;;
17983;SDS011;9117;52.420;20.728;2023-04-25T03:21:19;27.58;;;15.07;;
17983;SDS011;9117;52.420;20.728;2023-04-25T03:23:49;24.60;;;13.77;;
17983;SDS011;9117;52.420;20.728;2023-04-25T03:26:17;27.33;;;14.88;;
17983;SDS011;9117;52.420;20.728;2023-04-25T03:28:46;26.55;;;14.02;;
17983;SDS011;9117;52.420;20.728;2023-04-25T03:31:15;24.38;;;13.20;;
17983;SDS011;9117;52.420;20.728;2023-04-25T03:33:43;21.85;;;12.85;;
17983;SDS011;9117;52.420;20.728;2023-04-25T03:36:11;23.63;;;12.77;;
17983;SDS011;9117;52.420;20.728;2023-04-25T03:38:39;21.30;;;13.32;;
17983;SDS011;9117;52.420;20.728;2023-04-25T03:41:09;21.75;;;12.45;;
17983;SDS011;9117;52.420;20.728;2023-04-25T03:43:37;19.08;;;12.30;;
17983;SDS011;9117;52.420;20.728;2023-04-25T03:46:05;18.45;;;11.80;;
17983;SDS011;9117;52.420;20.728;2023-04-25T03:48:34;18.88;;;11.00;;
17983;SDS011;9117;52.420;20.728;2023-04-25T03:51:02;18.50;;;10.52;;
17983;SDS011;9117;52.420;20.728;2023-04-25T03:53:30;17.20;;;10.75;;
17983;SDS011;9117;52.420;20.728;2023-04-25T03:55:59;17.67;;;11.38;;
17983;SDS011;9117;52.420;20.728;2023-04-25T03:58:28;17.75;;;11.07;;
17983;SDS011;9117;52.420;20.728;2023-04-25T04:00:56;18.13;;;10.65;;
17983;SDS011;9117;52.420;20.728;2023-04-25T04:03:24;15.60;;;9.88;;
17983;SDS011;9117;52.420;20.728;2023-04-25T04:05:53;16.20;;;10.32;;
17983;SDS011;9117;52.420;20.728;2023-04-25T04:08:22;17.45;;;11.93;;
17983;SDS011;9117;52.420;20.728;2023-04-25T04:10:50;17.50;;;10.60;;
17983;SDS011;9117;52.420;20.728;2023-04-25T04:13:18;19.63;;;11.20;;
17983;SDS011;9117;52.420;20.728;2023-04-25T04:15:48;19.90;;;12.02;;
17983;SDS011;9117;52.420;20.728;2023-04-25T04:18:17;24.02;;;13.10;;
17983;SDS011;9117;52.420;20.728;2023-04-25T04:20:45;23.00;;;13.15;;
17983;SDS011;9117;52.420;20.728;2023-04-25T04:23:13;20.52;;;13.48;;
17983;SDS011;9117;52.420;20.728;2023-04-25T04:25:41;21.80;;;13.32;;
17983;SDS011;9117;52.420;20.728;2023-04-25T04:28:09;25.13;;;15.27;;
17983;SDS011;9117;52.420;20.728;2023-04-25T04:30:39;27.90;;;15.50;;
17983;SDS011;9117;52.420;20.728;2023-04-25T04:33:10;27.55;;;16.33;;
17983;SDS011;9117;52.420;20.728;2023-04-25T04:35:38;27.17;;;16.70;;
17983;SDS011;9117;52.420;20.728;2023-04-25T04:38:07;27.85;;;16.42;;
17983;SDS011;9117;52.420;20.728;2023-04-25T04:40:37;26.90;;;16.48;;
17983;SDS011;9117;52.420;20.728;2023-04-25T04:43:05;24.60;;;14.90;;
17983;SDS011;9117;52.420;20.728;2023-04-25T04:45:35;24.80;;;16.10;;
17983;SDS011;9117;52.420;20.728;2023-04-25T04:48:04;25.83;;;16.08;;
17983;SDS011;9117;52.420;20.728;2023-04-25T04:50:34;25.98;;;15.32;;
17983;SDS011;9117;52.420;20.728;2023-04-25T04:53:03;27.70;;;16.70;;
17983;SDS011;9117;52.420;20.728;2023-04-25T04:55:32;30.15;;;16.85;;
17983;SDS011;9117;52.420;20.728;2023-04-25T04:58:00;27.02;;;17.08;;
17983;SDS011;9117;52.420;20.728;2023-04-25T05:00:28;26.67;;;16.50;;
17983;SDS011;9117;52.420;20.728;2023-04-25T05:02:56;26.27;;;15.73;;
17983;SDS011;9117;52.420;20.728;2023-04-25T05:05:25;26.60;;;15.13;;
17983;SDS011;9117;52.420;20.728;2023-04-25T05:07:54;29.55;;;17.92;;
17983;SDS011;9117;52.420;20.728;2023-04-25T05:10:23;28.58;;;18.17;;
17983;SDS011;9117;52.420;20.728;2023-04-25T05:12:51;31.80;;;17.45;;
17983;SDS011;9117;52.420;20.728;2023-04-25T05:15:19;31.40;;;18.70;;
17983;SDS011;9117;52.420;20.728;2023-04-25T05:17:48;30.15;;;19.00;;
17983;SDS011;9117;52.420;20.728;2023-04-25T05:20:16;26.65;;;17.05;;
17983;SDS011;9117;52.420;20.728;2023-04-25T05:22:45;33.15;;;20.25;;
17983;SDS011;9117;52.420;20.728;2023-04-25T05:25:14;32.80;;;19.33;;
17983;SDS011;9117;52.420;20.728;2023-04-25T05:27:43;29.92;;;18.27;;
17983;SDS011;9117;52.420;20.728;2023-04-25T05:30:11;30.45;;;18.65;;
17983;SDS011;9117;52.420;20.728;2023-04-25T05:32:39;29.55;;;17.88;;
17983;SDS011;9117;52.420;20.728;2023-04-25T05:35:08;28.20;;;17.73;;
17983;SDS011;9117;52.420;20.728;2023-04-25T05:37:36;29.65;;;17.95;;
17983;SDS011;9117;52.420;20.728;2023-04-25T05:40:05;30.63;;;16.83;;
17983;SDS011;9117;52.420;20.728;2023-04-25T05:42:36;27.73;;;16.92;;
17983;SDS011;9117;52.420;20.728;2023-04-25T05:45:05;26.10;;;16.55;;
17983;SDS011;9117;52.420;20.728;2023-04-25T05:47:33;27.38;;;16.55;;
17983;SDS011;9117;52.420;20.728;2023-04-25T05:50:02;27.60;;;17.73;;
17983;SDS011;9117;52.420;20.728;2023-04-25T05:52:31;29.20;;;18.02;;
17983;SDS011;9117;52.420;20.728;2023-04-25T05:54:59;29.15;;;17.52;;
17983;SDS011;9117;52.420;20.728;2023-04-25T05:57:27;27.50;;;16.88;;
17983;SDS011;9117;52.420;20.728;2023-04-25T05:59:57;30.15;;;18.08;;
17983;SDS011;9117;52.420;20.728;2023-04-25T06:02:25;29.90;;;18.02;;
17983;SDS011;9117;52.420;20.728;2023-04-25T06:04:54;27.38;;;17.15;;
17983;SDS011;9117;52.420;20.728;2023-04-25T06:07:22;28.35;;;18.55;;
17983;SDS011;9117;52.420;20.728;2023-04-25T06:09:50;25.60;;;16.98;;
17983;SDS011;9117;52.420;20.728;2023-04-25T06:12:19;26.90;;;17.33;;
17983;SDS011;9117;52.420;20.728;2023-04-25T06:14:47;26.77;;;16.65;;
17983;SDS011;9117;52.420;20.728;2023-04-25T06:17:17;28.58;;;18.02;;
17983;SDS011;9117;52.420;20.728;2023-04-25T06:19:45;28.45;;;15.70;;
17983;SDS011;9117;52.420;20.728;2023-04-25T06:22:13;26.98;;;16.00;;
17983;SDS011;9117;52.420;20.728;2023-04-25T06:24:41;29.65;;;18.60;;
17983;SDS011;9117;52.420;20.728;2023-04-25T06:27:10;28.70;;;17.92;;
17983;SDS011;9117;52.420;20.728;2023-04-25T06:29:40;29.90;;;18.75;;
17983;SDS011;9117;52.420;20.728;2023-04-25T06:32:08;30.85;;;19.35;;
17983;SDS011;9117;52.420;20.728;2023-04-25T06:34:38;32.65;;;20.80;;
17983;SDS011;9117;52.420;20.728;2023-04-25T06:37:06;31.10;;;19.17;;
17983;SDS011;9117;52.420;20.728;2023-04-25T06:39:34;27.58;;;17.58;;
17983;SDS011;9117;52.420;20.728;2023-04-25T06:42:06;28.00;;;18.08;;
17983;SDS011;9117;52.420;20.728;2023-04-25T06:44:34;24.02;;;14.68;;
17983;SDS011;9117;52.420;20.728;2023-04-25T06:47:03;26.45;;;15.85;;
17983;SDS011;9117;52.420;20.728;2023-04-25T06:49:31;24.20;;;14.88;;
17983;SDS011;9117;52.420;20.728;2023-04-25T06:52:01;20.95;;;13.30;;
17983;SDS011;9117;52.420;20.728;2023-04-25T06:54:29;23.73;;;14.55;;
17983;SDS011;9117;52.420;20.728;2023-04-25T06:56:57;25.83;;;15.18;;
17983;SDS011;9117;52.420;20.728;2023-04-25T06:59:27;21.95;;;15.15;;
17983;SDS011;9117;52.420;20.728;2023-04-25T07:01:55;22.63;;;14.52;;
17983;SDS011;9117;52.420;20.728;2023-04-25T07:04:23;23.67;;;15.13;;
17983;SDS011;9117;52.420;20.728;2023-04-25T07:06:52;24.00;;;15.65;;
17983;SDS011;9117;52.420;20.728;2023-04-25T07:09:22;24.55;;;14.73;;
17983;SDS011;9117;52.420;20.728;2023-04-25T07:11:50;22.73;;;14.60;;
17983;SDS011;9117;52.420;20.728;2023-04-25T07:14:19;23.02;;;14.77;;
17983;SDS011;9117;52.420;20.728;2023-04-25T07:16:47;23.65;;;14.85;;
17983;SDS011;9117;52.420;20.728;2023-04-25T07:19:15;22.85;;;14.38;;
17983;SDS011;9117;52.420;20.728;2023-04-25T07:21:44;25.08;;;14.38;;
17983;SDS011;9117;52.420;20.728;2023-04-25T07:24:12;22.05;;;14.05;;
17983;SDS011;9117;52.420;20.728;2023-04-25T07:26:42;24.13;;;15.30;;
17983;SDS011;9117;52.420;20.728;2023-04-25T07:29:10;29.95;;;14.95;;
17983;SDS011;9117;52.420;20.728;2023-04-25T07:31:38;19.38;;;12.65;;
17983;SDS011;9117;52.420;20.728;2023-04-25T07:34:06;19.52;;;12.75;;
17983;SDS011;9117;52.420;20.728;2023-04-25T07:36:35;19.77;;;12.18;;
17983;SDS011;9117;52.420;20.728;2023-04-25T07:39:03;20.98;;;12.75;;
17983;SDS011;9117;52.420;20.728;2023-04-25T07:41:31;20.17;;;12.48;;
17983;SDS011;9117;52.420;20.728;2023-04-25T07:44:02;19.73;;;12.25;;
17983;SDS011;9117;52.420;20.728;2023-04-25T07:46:31;18.75;;;13.07;;
17983;SDS011;9117;52.420;20.728;2023-04-25T07:48:59;20.13;;;12.43;;
17983;SDS011;9117;52.420;20.728;2023-04-25T07:51:27;19.10;;;12.15;;
17983;SDS011;9117;52.420;20.728;2023-04-25T07:53:55;22.83;;;13.15;;
17983;SDS011;9117;52.420;20.728;2023-04-25T07:56:24;22.67;;;13.98;;
17983;SDS011;9117;52.420;20.728;2023-04-25T07:58:52;22.23;;;14.57;;
17983;SDS011;9117;52.420;20.728;2023-04-25T08:01:21;24.38;;;16.95;;
17983;SDS011;9117;52.420;20.728;2023-04-25T08:03:50;23.90;;;14.30;;
17983;SDS011;9117;52.420;20.728;2023-04-25T08:06:18;21.15;;;15.00;;
17983;SDS011;9117;52.420;20.728;2023-04-25T08:08:47;24.38;;;14.32;;
17983;SDS011;9117;52.420;20.728;2023-04-25T08:11:15;23.10;;;14.45;;
17983;SDS011;9117;52.420;20.728;2023-04-25T08:13:43;22.00;;;13.35;;
17983;SDS011;9117;52.420;20.728;2023-04-25T08:16:11;19.05;;;13.35;;
17983;SDS011;9117;52.420;20.728;2023-04-25T08:18:41;21.48;;;14.32;;
17983;SDS011;9117;52.420;20.728;2023-04-25T08:21:09;21.33;;;13.43;;
17983;SDS011;9117;52.420;20.728;2023-04-25T08:23:38;21.70;;;14.18;;
17983;SDS011;9117;52.420;20.728;2023-04-25T08:26:06;19.27;;;13.70;;
17983;SDS011;9117;52.420;20.728;2023-04-25T08:28:35;20.95;;;15.27;;
17983;SDS011;9117;52.420;20.728;2023-04-25T08:31:03;21.15;;;15.77;;
17983;SDS011;9117;52.420;20.728;2023-04-25T08:33:31;21.58;;;13.95;;
17983;SDS011;9117;52.420;20.728;2023-04-25T08:36:01;20.40;;;13.30;;
17983;SDS011;9117;52.420;20.728;2023-04-25T08:38:30;20.83;;;14.85;;
17983;SDS011;9117;52.420;20.728;2023-04-25T08:40:58;20.52;;;14.27;;
17983;SDS011;9117;52.420;20.728;2023-04-25T08:43:28;21.00;;;14.25;;
17983;SDS011;9117;52.420;20.728;2023-04-25T08:45:57;24.05;;;14.30;;
17983;SDS011;9117;52.420;20.728;2023-04-25T08:48:27;21.98;;;15.02;;
17983;SDS011;9117;52.420;20.728;2023-04-25T08:50:56;21.15;;;14.98;;
17983;SDS011;9117;52.420;20.728;2023-04-25T08:53:27;19.83;;;13.75;;
17983;SDS011;9117;52.420;20.728;2023-04-25T08:55:57;18.55;;;12.32;;
17983;SDS011;9117;52.420;20.728;2023-04-25T08:58:28;16.05;;;11.30;;
17983;SDS011;9117;52.420;20.728;2023-04-25T09:00:56;17.17;;;10.50;;
17983;SDS011;9117;52.420;20.728;2023-04-25T09:03:25;17.48;;;10.68;;
17983;SDS011;9117;52.420;20.728;2023-04-25T09:05:53;14.68;;;10.30;;
17983;SDS011;9117;52.420;20.728;2023-04-25T09:08:22;13.82;;;9.30;;
17983;SDS011;9117;52.420;20.728;2023-04-25T09:10:52;14.27;;;9.35;;
17983;SDS011;9117;52.420;20.728;2023-04-25T09:13:24;15.95;;;9.77;;
17983;SDS011;9117;52.420;20.728;2023-04-25T09:15:54;14.80;;;10.50;;
17983;SDS011;9117;52.420;20.728;2023-04-25T09:18:23;14.60;;;10.52;;
17983;SDS011;9117;52.420;20.728;2023-04-25T09:20:57;17.52;;;12.10;;
17983;SDS011;9117;52.420;20.728;2023-04-25T09:23:40;18.83;;;12.27;;
17983;SDS011;9117;52.420;20.728;2023-04-25T09:26:10;16.70;;;12.07;;
17983;SDS011;9117;52.420;20.728;2023-04-25T09:28:43;20.50;;;12.23;;
17983;SDS011;9117;52.420;20.728;2023-04-25T09:31:12;18.58;;;12.35;;
17983;SDS011;9117;52.420;20.728;2023-04-25T09:33:48;17.55;;;11.63;;
17983;SDS011;9117;52.420;20.728;2023-04-25T09:36:20;17.08;;;11.27;;
17983;SDS011;9117;52.420;20.728;2023-04-25T09:38:54;16.35;;;11.90;;
17983;SDS011;9117;52.420;20.728;2023-04-25T09:41:24;21.20;;;12.40;;
17983;SDS011;9117;52.420;20.728;2023-04-25T09:43:56;16.95;;;11.88;;
17983;SDS011;9117;52.420;20.728;2023-04-25T09:46:25;15.20;;;10.35;;
17983;SDS011;9117;52.420;20.728;2023-04-25T09:49:05;14.18;;;9.77;;
17983;SDS011;9117;52.420;20.728;2023-04-25T09:51:34;13.60;;;8.07;;
17983;SDS011;9117;52.420;20.728;2023-04-25T09:54:02;12.35;;;9.00;;
17983;SDS011;9117;52.420;20.728;2023-04-25T09:56:32;10.20;;;7.80;;
17983;SDS011;9117;52.420;20.728;2023-04-25T09:59:04;8.43;;;6.50;;
17983;SDS011;9117;52.420;20.728;2023-04-25T10:01:34;13.20;;;7.60;;
17983;SDS011;9117;52.420;20.728;2023-04-25T10:04:03;11.07;;;7.45;;
17983;SDS011;9117;52.420;20.728;2023-04-25T10:06:33;8.82;;;6.78;;
17983;SDS011;9117;52.420;20.728;2023-04-25T10:09:03;13.07;;;7.75;;
17983;SDS011;9117;52.420;20.728;2023-04-25T10:11:35;13.07;;;6.50;;
17983;SDS011;9117;52.420;20.728;2023-04-25T10:14:04;9.55;;;6.78;;
17983;SDS011;9117;52.420;20.728;2023-04-25T10:16:32;7.43;;;5.72;;
17983;SDS011;9117;52.420;20.728;2023-04-25T10:19:01;8.48;;;5.78;;
17983;SDS011;9117;52.420;20.728;2023-04-25T10:21:30;7.40;;;5.65;;
17983;SDS011;9117;52.420;20.728;2023-04-25T10:24:00;6.60;;;4.82;;
17983;SDS011;9117;52.420;20.728;2023-04-25T10:26:29;7.88;;;5.22;;
17983;SDS011;9117;52.420;20.728;2023-04-25T10:28:59;8.07;;;5.55;;
17983;SDS011;9117;52.420;20.728;2023-04-25T10:31:29;6.50;;;4.90;;
17983;SDS011;9117;52.420;20.728;2023-04-25T10:33:59;7.05;;;5.18;;
17983;SDS011;9117;52.420;20.728;2023-04-25T10:36:30;7.63;;;5.75;;
17983;SDS011;9117;52.420;20.728;2023-04-25T10:39:03;6.72;;;4.95;;
17983;SDS011;9117;52.420;20.728;2023-04-25T10:41:44;7.97;;;4.88;;
17983;SDS011;9117;52.420;20.728;2023-04-25T10:44:15;8.88;;;5.35;;
17983;SDS011;9117;52.420;20.728;2023-04-25T10:46:44;6.45;;;4.57;;
17983;SDS011;9117;52.420;20.728;2023-04-25T10:49:28;5.80;;;4.47;;
17983;SDS011;9117;52.420;20.728;2023-04-25T10:52:16;5.15;;;4.40;;
17983;SDS011;9117;52.420;20.728;2023-04-25T10:54:46;5.43;;;4.32;;
17983;SDS011;9117;52.420;20.728;2023-04-25T10:57:29;5.68;;;4.35;;
17983;SDS011;9117;52.420;20.728;2023-04-25T11:00:00;6.68;;;5.10;;
17983;SDS011;9117;52.420;20.728;2023-04-25T11:02:36;5.20;;;4.00;;
17983;SDS011;9117;52.420;20.728;2023-04-25T11:05:06;4.97;;;4.20;;
17983;SDS011;9117;52.420;20.728;2023-04-25T11:07:37;7.57;;;4.78;;
17983;SDS011;9117;52.420;20.728;2023-04-25T11:10:08;5.97;;;4.25;;
17983;SDS011;9117;52.420;20.728;2023-04-25T11:12:36;6.85;;;4.65;;
17983;SDS011;9117;52.420;20.728;2023-04-25T11:15:07;7.60;;;5.70;;
17983;SDS011;9117;52.420;20.728;2023-04-25T11:17:35;9.38;;;6.10;;
17983;SDS011;9117;52.420;20.728;2023-04-25T11:20:06;9.63;;;6.45;;
17983;SDS011;9117;52.420;20.728;2023-04-25T11:22:37;13.38;;;5.78;;
17983;SDS011;9117;52.420;20.728;2023-04-25T11:25:08;7.20;;;5.20;;
17983;SDS011;9117;52.420;20.728;2023-04-25T11:27:38;7.57;;;5.78;;
17983;SDS011;9117;52.420;20.728;2023-04-25T11:30:13;7.72;;;5.82;;
17983;SDS011;9117;52.420;20.728;2023-04-25T11:32:43;8.27;;;6.07;;
17983;SDS011;9117;52.420;20.728;2023-04-25T11:35:11;8.00;;;6.28;;
17983;SDS011;9117;52.420;20.728;2023-04-25T11:37:40;9.10;;;6.93;;
17983;SDS011;9117;52.420;20.728;2023-04-25T11:40:11;10.38;;;7.50;;
17983;SDS011;9117;52.420;20.728;2023-04-25T11:42:43;10.02;;;6.75;;
17983;SDS011;9117;52.420;20.728;2023-04-25T11:45:14;7.70;;;6.40;;
17983;SDS011;9117;52.420;20.728;2023-04-25T11:47:42;6.57;;;5.10;;
17983;SDS011;9117;52.420;20.728;2023-04-25T11:50:11;8.50;;;5.53;;
17983;SDS011;9117;52.420;20.728;2023-04-25T11:52:41;6.80;;;5.22;;
17983;SDS011;9117;52.420;20.728;2023-04-25T11:55:12;7.97;;;4.93;;
17983;SDS011;9117;52.420;20.728;2023-04-25T11:57:42;6.32;;;4.82;;
17983;SDS011;9117;52.420;20.728;2023-04-25T12:00:11;8.45;;;5.43;;
17983;SDS011;9117;52.420;20.728;2023-04-25T12:02:44;6.53;;;4.30;;
17983;SDS011;9117;52.420;20.728;2023-04-25T12:05:15;5.70;;;4.22;;
17983;SDS011;9117;52.420;20.728;2023-04-25T12:07:46;8.45;;;4.32;;
17983;SDS011;9117;52.420;20.728;2023-04-25T12:10:17;6.38;;;4.50;;
17983;SDS011;9117;52.420;20.728;2023-04-25T12:12:47;7.18;;;4.80;;
17983;SDS011;9117;52.420;20.728;2023-04-25T12:15:18;22.02;;;11.32;;
17983;SDS011;9117;52.420;20.728;2023-04-25T12:17:50;11.73;;;5.70;;
17983;SDS011;9117;52.420;20.728;2023-04-25T12:20:20;6.07;;;4.70;;
17983;SDS011;9117;52.420;20.728;2023-04-25T12:22:51;6.45;;;4.63;;
17983;SDS011;9117;52.420;20.728;2023-04-25T12:28:13;6.40;;;4.10;;
17983;SDS011;9117;52.420;20.728;2023-04-25T12:30:53;5.18;;;4.30;;
17983;SDS011;9117;52.420;20.728;2023-04-25T12:33:26;6.10;;;4.40;;
17983;SDS011;9117;52.420;20.728;2023-04-25T12:35:59;5.18;;;4.22;;
17983;SDS011;9117;52.420;20.728;2023-04-25T12:38:34;6.82;;;4.45;;
17983;SDS011;9117;52.420;20.728;2023-04-25T12:41:03;5.95;;;4.03;;
17983;SDS011;9117;52.420;20.728;2023-04-25T12:43:32;4.93;;;4.28;;
17983;SDS011;9117;52.420;20.728;2023-04-25T12:46:02;6.93;;;4.15;;
17983;SDS011;9117;52.420;20.728;2023-04-25T12:48:30;9.30;;;4.47;;
17983;SDS011;9117;52.420;20.728;2023-04-25T12:50:59;7.55;;;4.18;;
17983;SDS011;9117;52.420;20.728;2023-04-25T12:53:27;8.93;;;5.25;;
17983;SDS011;9117;52.420;20.728;2023-04-25T12:55:55;5.13;;;4.18;;
17983;SDS011;9117;52.420;20.728;2023-04-25T12:58:23;7.05;;;4.18;;
17983;SDS011;9117;52.420;20.728;2023-04-25T13:00:52;5.50;;;4.47;;
17983;SDS011;9117;52.420;20.728;2023-04-25T13:03:21;6.10;;;4.93;;
17983;SDS011;9117;52.420;20.728;2023-04-25T13:05:50;5.90;;;4.65;;
17983;SDS011;9117;52.420;20.728;2023-04-25T13:08:19;6.15;;;4.53;;
17983;SDS011;9117;52.420;20.728;2023-04-25T13:10:47;7.22;;;4.30;;
17983;SDS011;9117;52.420;20.728;2023-04-25T13:13:15;5.47;;;4.22;;
17983;SDS011;9117;52.420;20.728;2023-04-25T13:15:43;5.22;;;4.43;;
17983;SDS011;9117;52.420;20.728;2023-04-25T13:18:12;5.68;;;4.38;;
17983;SDS011;9117;52.420;20.728;2023-04-25T13:20:42;5.95;;;4.18;;
17983;SDS011;9117;52.420;20.728;2023-04-25T13:23:10;4.32;;;3.70;;
17983;SDS011;9117;52.420;20.728;2023-04-25T13:25:38;5.97;;;4.63;;
17983;SDS011;9117;52.420;20.728;2023-04-25T13:28:06;5.75;;;4.63;;
17983;SDS011;9117;52.420;20.728;2023-04-25T13:30:35;7.82;;;5.53;;
17983;SDS011;9117;52.420;20.728;2023-04-25T13:33:03;9.57;;;5.05;;
17983;SDS011;9117;52.420;20.728;2023-04-25T13:35:33;9.38;;;5.70;;
17983;SDS011;9117;52.420;20.728;2023-04-25T13:38:03;8.27;;;5.40;;
17983;SDS011;9117;52.420;20.728;2023-04-25T13:40:32;9.30;;;5.70;;
17983;SDS011;9117;52.420;20.728;2023-04-25T13:43:01;7.25;;;5.10;;
17983;SDS011;9117;52.420;20.728;2023-04-25T13:45:29;8.77;;;5.63;;
17983;SDS011;9117;52.420;20.728;2023-04-25T13:47:59;6.88;;;5.20;;
17983;SDS011;9117;52.420;20.728;2023-04-25T13:50:28;9.65;;;5.32;;
17983;SDS011;9117;52.420;20.728;2023-04-25T13:52:56;8.73;;;4.90;;
17983;SDS011;9117;52.420;20.728;2023-04-25T13:55:26;6.47;;;5.10;;
17983;SDS011;9117;52.420;20.728;2023-04-25T13:57:54;6.90;;;5.13;;
17983;SDS011;9117;52.420;20.728;2023-04-25T14:00:22;8.48;;;5.53;;
17983;SDS011;9117;52.420;20.728;2023-04-25T14:02:51;9.23;;;5.82;;
17983;SDS011;9117;52.420;20.728;2023-04-25T14:05:19;8.30;;;5.70;;
17983;SDS011;9117;52.420;20.728;2023-04-25T14:07:48;6.95;;;5.22;;
17983;SDS011;9117;52.420;20.728;2023-04-25T14:10:16;6.13;;;4.72;;
17983;SDS011;9117;52.420;20.728;2023-04-25T14:12:46;6.60;;;5.07;;
17983;SDS011;9117;52.420;20.728;2023-04-25T14:15:14;6.13;;;4.60;;
17983;SDS011;9117;52.420;20.728;2023-04-25T14:17:42;7.32;;;4.53;;
17983;SDS011;9117;52.420;20.728;2023-04-25T14:20:12;7.32;;;4.93;;
17983;SDS011;9117;52.420;20.728;2023-04-25T14:22:40;7.30;;;4.75;;
17983;SDS011;9117;52.420;20.728;2023-04-25T14:25:10;8.90;;;5.25;;
17983;SDS011;9117;52.420;20.728;2023-04-25T14:27:38;8.57;;;5.53;;
17983;SDS011;9117;52.420;20.728;2023-04-25T14:30:08;7.38;;;5.35;;
17983;SDS011;9117;52.420;20.728;2023-04-25T14:32:38;7.88;;;4.93;;
17983;SDS011;9117;52.420;20.728;2023-04-25T14:35:06;5.35;;;4.45;;
17983;SDS011;9117;52.420;20.728;2023-04-25T14:37:35;8.32;;;4.43;;
17983;SDS011;9117;52.420;20.728;2023-04-25T14:40:03;9.77;;;5.65;;
17983;SDS011;9117;52.420;20.728;2023-04-25T14:42:33;7.28;;;5.43;;
17983;SDS011;9117;52.420;20.728;2023-04-25T14:45:02;7.63;;;5.13;;